createdAt,value
2022-10-18T00:00:17.247Z,101231.47
2022-10-18T00:02:52.908Z,101236.19
2022-10-18T00:05:27.956Z,101239.19
2022-10-18T00:08:08.382Z,101233.88
2022-10-18T00:10:46.311Z,101237.81
2022-10-18T00:13:24.362Z,101227.41
2022-10-18T00:16:03.450Z,101232.28
2022-10-18T00:18:37.663Z,101218.66
2022-10-18T00:21:14.690Z,101219.97
2022-10-18T00:23:57.237Z,101218.81
2022-10-18T00:26:32.797Z,101212.56
2022-10-18T00:29:18.790Z,101216.53
2022-10-18T00:31:55.060Z,101208.81
2022-10-18T00:34:36.123Z,101206.44
2022-10-18T00:37:21.674Z,101215.81
2022-10-18T00:40:04.105Z,101203.72
2022-10-18T00:42:41.920Z,101208.53
2022-10-18T00:45:29.927Z,101209.00
2022-10-18T00:48:07.662Z,101202.97
2022-10-18T00:50:50.680Z,101204.97
2022-10-18T00:53:30.036Z,101206.97
2022-10-18T00:56:15.304Z,101204.28
2022-10-18T00:58:59.470Z,101200.19
2022-10-18T01:01:42.961Z,101200.38
2022-10-18T01:04:22.165Z,101196.84
2022-10-18T01:07:09.225Z,101195.16
2022-10-18T01:09:49.575Z,101196.63
2022-10-18T01:12:55.995Z,101196.63
2022-10-18T01:16:13.571Z,101184.50
2022-10-18T01:18:51.518Z,101183.66
2022-10-18T01:21:43.867Z,101183.66
2022-10-18T01:24:48.888Z,101173.94
2022-10-18T01:27:57.872Z,101179.31
2022-10-18T01:30:52.289Z,101171.94
2022-10-18T01:34:08.540Z,101171.25
2022-10-18T01:36:52.489Z,101167.41
2022-10-18T01:39:28.502Z,101165.19
2022-10-18T01:42:13.138Z,101154.13
2022-10-18T01:44:53.549Z,101159.03
2022-10-18T01:47:38.476Z,101154.84
2022-10-18T01:50:13.969Z,101155.34
2022-10-18T01:53:00.459Z,101154.19
2022-10-18T01:55:52.730Z,101152.19
2022-10-18T01:58:41.003Z,101151.50
2022-10-18T02:01:31.364Z,101143.44
2022-10-18T02:04:28.133Z,101144.78
2022-10-18T02:07:25.827Z,101142.94
2022-10-18T02:10:29.205Z,101135.66
2022-10-18T02:13:10.218Z,101141.34
2022-10-18T02:15:51.021Z,101135.31
2022-10-18T02:18:51.983Z,101135.91
2022-10-18T02:21:40.965Z,101145.41
2022-10-18T02:24:21.128Z,101141.50
2022-10-18T02:26:58.742Z,101139.97
2022-10-18T02:29:42.028Z,101140.63
2022-10-18T02:32:43.171Z,101137.38
2022-10-18T02:35:33.216Z,101136.69
2022-10-18T02:38:18.752Z,101136.84
2022-10-18T02:41:02.836Z,101142.03
2022-10-18T02:43:46.184Z,101134.94
2022-10-18T02:46:28.004Z,101140.63
2022-10-18T02:49:17.942Z,101141.78
2022-10-18T02:51:56.503Z,101143.06
2022-10-18T02:54:41.811Z,101142.06
2022-10-18T02:57:33.836Z,101143.06
2022-10-18T03:00:15.821Z,101138.53
2022-10-18T03:03:13.144Z,101139.56
2022-10-18T03:05:54.445Z,101148.56
2022-10-18T03:08:32.478Z,101150.59
2022-10-18T03:11:07.452Z,101153.28
2022-10-18T03:13:45.333Z,101157.94
2022-10-18T03:16:31.332Z,101153.03
2022-10-18T03:19:15.820Z,101154.69
2022-10-18T03:21:54.403Z,101161.22
2022-10-18T03:24:37.607Z,101151.81
2022-10-18T03:27:25.727Z,101149.97
2022-10-18T03:30:05.462Z,101152.50
2022-10-18T03:32:41.050Z,101153.03
2022-10-18T03:35:24.175Z,101156.84
2022-10-18T03:38:13.084Z,101158.84
2022-10-18T03:40:52.071Z,101161.97
2022-10-18T03:43:27.798Z,101161.44
2022-10-18T03:46:00.615Z,101160.38
2022-10-18T03:48:52.658Z,101155.25
2022-10-18T03:51:36.148Z,101155.00
2022-10-18T03:54:14.165Z,101159.59
2022-10-18T03:56:50.570Z,101156.84
2022-10-18T03:59:31.472Z,101150.66
2022-10-18T04:02:15.342Z,101147.09
2022-10-18T04:04:50.648Z,101150.78
2022-10-18T04:07:38.385Z,101147.66
2022-10-18T04:10:18.821Z,101151.03
2022-10-18T04:12:59.827Z,101147.91
2022-10-18T04:15:35.601Z,101151.09
2022-10-18T04:18:10.237Z,101147.41
2022-10-18T04:20:57.076Z,101146.56
2022-10-18T04:23:36.422Z,101148.81
2022-10-18T04:26:22.876Z,101143.44
2022-10-18T04:29:02.953Z,101142.88
2022-10-18T04:31:30.064Z,101133.03
2022-10-18T04:34:02.176Z,101136.53
2022-10-18T04:36:40.154Z,101138.06
2022-10-18T04:39:27.008Z,101136.09
2022-10-18T04:42:13.711Z,101136.38
2022-10-18T04:44:48.519Z,101133.09
2022-10-18T04:47:26.374Z,101130.34
2022-10-18T04:50:05.294Z,101127.81
2022-10-18T04:52:58.499Z,101129.97
2022-10-18T04:55:34.277Z,101118.25
2022-10-18T04:58:13.329Z,101117.09
2022-10-18T05:00:50.376Z,101127.69
2022-10-18T05:03:39.123Z,101121.31
2022-10-18T05:06:25.607Z,101117.94
2022-10-18T05:09:18.673Z,101119.00
2022-10-18T05:12:10.436Z,101125.06
2022-10-18T05:14:46.325Z,101121.00
2022-10-18T05:17:22.404Z,101125.50
2022-10-18T05:19:58.239Z,101130.19
2022-10-18T05:22:46.285Z,101127.66
2022-10-18T05:25:18.608Z,101135.09
2022-10-18T05:28:10.522Z,101126.91
2022-10-18T05:30:55.161Z,101127.59
2022-10-18T05:33:30.755Z,101118.03
2022-10-18T05:36:10.541Z,101115.03
2022-10-18T05:38:48.920Z,101118.09
2022-10-18T05:41:31.858Z,101112.88
2022-10-18T05:44:19.131Z,101115.25
2022-10-18T05:46:57.353Z,101124.53
2022-10-18T05:49:47.301Z,101122.00
2022-10-18T05:52:40.252Z,101127.22
2022-10-18T05:55:18.171Z,101131.88
2022-10-18T05:58:00.804Z,101126.13
2022-10-18T06:00:41.539Z,101128.19
2022-10-18T06:03:20.336Z,101132.75
2022-10-18T06:06:10.913Z,101139.59
2022-10-18T06:08:55.425Z,101137.06
2022-10-18T06:11:30.897Z,101137.63
2022-10-18T06:14:05.646Z,101147.97
2022-10-18T06:16:46.616Z,101145.19
2022-10-18T06:19:29.895Z,101148.97
2022-10-18T06:22:20.694Z,101144.50
2022-10-18T06:24:55.061Z,101148.25
2022-10-18T06:27:40.973Z,101142.59
2022-10-18T06:30:13.005Z,101147.66
2022-10-18T06:32:46.405Z,101142.31
2022-10-18T06:35:21.540Z,101141.63
2022-10-18T06:38:15.858Z,101143.13
2022-10-18T06:40:51.171Z,101155.06
2022-10-18T06:43:44.815Z,101153.72
2022-10-18T06:46:29.154Z,101158.03
2022-10-18T06:49:02.376Z,101160.16
2022-10-18T06:51:45.626Z,101158.91
2022-10-18T06:54:33.379Z,101158.09
2022-10-18T06:57:10.731Z,101155.13
2022-10-18T06:59:58.251Z,101163.09
2022-10-18T07:02:41.248Z,101151.19
2022-10-18T07:05:22.953Z,101146.50
2022-10-18T07:07:55.674Z,101148.41
2022-10-18T07:10:39.084Z,101147.19
2022-10-18T07:13:31.588Z,101146.25
2022-10-18T07:16:26.773Z,101144.56
2022-10-18T07:19:04.830Z,101145.03
2022-10-18T07:21:43.236Z,101139.81
2022-10-18T07:24:21.676Z,101145.44
2022-10-18T07:27:10.318Z,101146.84
2022-10-18T07:29:48.774Z,101139.44
2022-10-18T07:32:33.774Z,101141.47
2022-10-18T07:35:20.853Z,101141.50
2022-10-18T07:38:07.679Z,101144.75
2022-10-18T07:40:51.308Z,101143.41
2022-10-18T07:43:34.373Z,101133.47
2022-10-18T07:46:17.440Z,101136.75
2022-10-18T07:49:05.703Z,101128.75
2022-10-18T07:51:42.846Z,101134.53
2022-10-18T07:54:22.399Z,101133.94
2022-10-18T07:57:02.686Z,101127.13
2022-10-18T07:59:46.347Z,101123.41
2022-10-18T08:02:21.390Z,101120.94
2022-10-18T08:05:05.305Z,101120.53
2022-10-18T08:07:40.269Z,101109.06
2022-10-18T08:10:31.254Z,101105.31
2022-10-18T08:13:08.924Z,101105.75
2022-10-18T08:15:48.484Z,101102.19
2022-10-18T08:18:26.860Z,101111.81
2022-10-18T08:21:19.777Z,101100.94
2022-10-18T08:23:55.110Z,101092.16
2022-10-18T08:26:41.825Z,101094.03
2022-10-18T08:29:29.146Z,101082.09
2022-10-18T08:32:05.733Z,101089.59
2022-10-18T08:34:49.700Z,101085.78
2022-10-18T08:37:27.008Z,101085.19
2022-10-18T08:40:01.902Z,101086.41
2022-10-18T08:42:58.938Z,101078.44
2022-10-18T08:45:42.251Z,101078.41
2022-10-18T08:48:22.346Z,101073.91
2022-10-18T08:50:57.702Z,101065.72
2022-10-18T08:53:40.091Z,101068.41
2022-10-18T08:56:21.563Z,101061.00
2022-10-18T08:59:06.141Z,101062.66
2022-10-18T09:01:58.979Z,101057.91
2022-10-18T09:04:54.221Z,101051.75
2022-10-18T09:07:52.603Z,101043.97
2022-10-18T09:10:45.720Z,101055.41
2022-10-18T09:13:47.761Z,101057.34
2022-10-18T09:16:47.602Z,101042.53
2022-10-18T09:19:35.316Z,101036.72
2022-10-18T09:22:42.167Z,101044.81
2022-10-18T09:25:25.515Z,101034.81
2022-10-18T09:28:42.003Z,101041.78
2022-10-18T09:31:31.310Z,101037.47
2022-10-18T09:34:26.738Z,101029.34
2022-10-18T09:37:15.346Z,101025.75
2022-10-18T09:40:05.993Z,101027.75
2022-10-18T09:42:45.305Z,101013.94
2022-10-18T09:45:32.024Z,101010.53
2022-10-18T09:48:14.123Z,101010.69
2022-10-18T09:51:11.188Z,101004.41
2022-10-18T09:54:38.440Z,101000.41
2022-10-18T09:57:28.858Z,100998.06
2022-10-18T10:00:04.296Z,100994.50
2022-10-18T10:02:39.621Z,100989.75
2022-10-18T10:05:23.602Z,100987.38
2022-10-18T10:08:05.501Z,100989.16
2022-10-18T10:10:56.564Z,100977.19
2022-10-18T10:13:33.300Z,100966.03
2022-10-18T10:16:13.934Z,100969.69
2022-10-18T10:19:04.617Z,100966.50
2022-10-18T10:21:50.111Z,100952.69
2022-10-18T10:24:30.280Z,100959.56
2022-10-18T10:27:32.385Z,100945.00
2022-10-18T10:30:26.484Z,100948.53
2022-10-18T10:33:03.642Z,100949.03
2022-10-18T10:35:53.403Z,100945.22
2022-10-18T10:38:34.671Z,100936.59
2022-10-18T10:43:54.723Z,100925.47
2022-10-18T10:46:39.445Z,100929.25
2022-10-18T10:49:39.590Z,100922.53
2022-10-18T10:52:36.850Z,100912.34
2022-10-18T10:55:38.359Z,100912.03
2022-10-18T10:58:26.641Z,100903.06
2022-10-18T11:01:21.520Z,100896.66
2022-10-18T11:04:28.243Z,100895.31
2022-10-18T11:07:39.508Z,100898.31
2022-10-18T11:10:14.249Z,100889.91
2022-10-18T11:13:04.415Z,100881.44
2022-10-18T11:15:53.101Z,100881.16
2022-10-18T11:18:34.704Z,100882.84
2022-10-18T11:21:11.913Z,100872.78
2022-10-18T11:23:54.196Z,100878.44
2022-10-18T11:27:08.611Z,100863.16
2022-10-18T11:29:57.126Z,100868.63
2022-10-18T11:32:54.498Z,100863.94
2022-10-18T11:36:03.522Z,100850.81
2022-10-18T11:38:57.277Z,100858.78
2022-10-18T11:42:13.748Z,100858.19
2022-10-18T11:44:51.866Z,100845.94
2022-10-18T11:47:56.572Z,100845.34
2022-10-18T11:50:50.110Z,100839.25
2022-10-18T11:53:37.659Z,100832.69
2022-10-18T11:56:34.377Z,100825.72
2022-10-18T11:59:24.258Z,100830.22
2022-10-18T12:02:39.673Z,100827.03
2022-10-18T12:05:29.748Z,100816.72
2022-10-18T12:08:11.358Z,100810.56
2022-10-18T12:11:04.981Z,100803.78
2022-10-18T12:13:59.298Z,100802.16
2022-10-18T12:17:20.214Z,100788.28
2022-10-18T12:19:42.865Z,100792.88
2022-10-18T12:22:33.258Z,100788.50
2022-10-18T12:25:19.617Z,100794.94
2022-10-18T12:28:06.310Z,100782.31
2022-10-18T12:30:57.660Z,100784.78
2022-10-18T12:33:44.703Z,100776.13
2022-10-18T12:36:44.452Z,100773.25
2022-10-18T12:40:08.576Z,100778.09
2022-10-18T12:42:50.144Z,100764.78
2022-10-18T12:45:47.498Z,100763.81
2022-10-18T12:48:42.414Z,100765.72
2022-10-18T12:51:28.620Z,100755.66
2022-10-18T12:54:22.638Z,100739.66
2022-10-18T12:56:57.656Z,100751.16
2022-10-18T12:59:44.508Z,100739.00
2022-10-18T13:02:24.517Z,100731.34
2022-10-18T13:05:02.557Z,100729.75
2022-10-18T13:07:41.053Z,100720.28
2022-10-18T13:10:16.826Z,100729.63
2022-10-18T13:13:29.575Z,100728.81
2022-10-18T13:16:30.050Z,100729.69
2022-10-18T13:19:25.302Z,100724.63
2022-10-18T13:22:35.856Z,100731.75
2022-10-18T13:25:21.826Z,100722.34
2022-10-18T13:28:02.781Z,100717.75
2022-10-18T13:31:13.955Z,100713.31
2022-10-18T13:33:52.080Z,100719.56
2022-10-18T13:36:29.948Z,100722.50
2022-10-18T13:39:07.685Z,100718.56
2022-10-18T13:41:55.123Z,100720.88
2022-10-18T13:44:55.089Z,100712.13
2022-10-18T13:47:42.767Z,100718.13
2022-10-18T13:50:28.541Z,100706.59
2022-10-18T13:53:27.228Z,100708.78
2022-10-18T13:56:23.651Z,100708.03
2022-10-18T13:59:20.380Z,100707.72
2022-10-18T14:02:49.421Z,100707.41
2022-10-18T14:11:25.960Z,100688.16
2022-10-18T14:14:09.082Z,100687.22
2022-10-18T14:17:25.406Z,100683.91
2022-10-18T14:20:04.961Z,100677.28
2022-10-18T14:22:54.031Z,100676.69
2022-10-18T14:25:35.898Z,100675.63
2022-10-18T14:28:27.425Z,100665.78
2022-10-18T14:31:11.913Z,100663.47
2022-10-18T14:33:59.738Z,100660.03
2022-10-18T14:36:42.968Z,100660.47
2022-10-18T14:39:38.386Z,100656.81
2022-10-18T14:42:23.466Z,100657.53
2022-10-18T14:45:00.643Z,100654.69
2022-10-18T14:47:48.330Z,100649.75
2022-10-18T14:50:30.902Z,100648.66
2022-10-18T14:53:14.021Z,100642.34
2022-10-18T14:56:03.762Z,100636.91
2022-10-18T14:58:48.398Z,100636.31
2022-10-18T15:01:40.407Z,100632.34
2022-10-18T15:04:26.262Z,100625.91
2022-10-18T15:07:15.937Z,100625.09
2022-10-18T15:09:58.961Z,100630.56
2022-10-18T15:12:41.220Z,100627.59
2022-10-18T15:15:30.485Z,100627.34
2022-10-18T15:18:08.369Z,100617.38
2022-10-18T15:20:51.619Z,100617.06
2022-10-18T15:23:50.312Z,100623.00
2022-10-18T15:26:30.438Z,100610.56
2022-10-18T15:29:04.574Z,100609.56
2022-10-18T15:31:46.072Z,100608.53
2022-10-18T15:34:26.979Z,100609.00
2022-10-18T15:37:03.173Z,100610.97
2022-10-18T15:39:41.417Z,100604.50
2022-10-18T15:42:45.791Z,100613.09
2022-10-18T15:48:48.288Z,100613.34
2022-10-18T15:52:11.874Z,100606.03
2022-10-18T15:54:44.766Z,100605.28
2022-10-18T15:57:24.814Z,100606.16
2022-10-18T16:00:07.635Z,100610.38
2022-10-18T16:02:50.860Z,100606.50
2022-10-18T16:05:25.741Z,100604.13
2022-10-18T16:08:08.124Z,100604.25
2022-10-18T16:10:46.620Z,100608.13
2022-10-18T16:13:21.053Z,100597.22
2022-10-18T16:16:01.726Z,100599.44
2022-10-18T16:18:38.772Z,100609.13
2022-10-18T16:21:32.270Z,100608.78
2022-10-18T16:24:18.378Z,100612.00
2022-10-18T16:27:04.363Z,100612.69
2022-10-18T16:29:47.640Z,100611.88
2022-10-18T16:32:22.775Z,100617.75
2022-10-18T16:34:54.999Z,100613.44
2022-10-18T16:37:40.057Z,100611.81
2022-10-18T16:40:28.881Z,100615.16
2022-10-18T16:43:05.383Z,100615.16
2022-10-18T16:45:42.219Z,100625.59
2022-10-18T16:48:24.703Z,100615.38
2022-10-18T16:51:08.377Z,100622.00
2022-10-18T16:53:40.205Z,100623.66
2022-10-18T16:56:34.335Z,100613.00
2022-10-18T16:59:10.733Z,100610.50
2022-10-18T17:01:56.735Z,100610.72
2022-10-18T17:04:31.861Z,100613.16
2022-10-18T17:07:03.610Z,100608.31
2022-10-18T17:09:41.207Z,100614.56
2022-10-18T17:12:15.620Z,100612.22
2022-10-18T17:14:51.025Z,100618.00
2022-10-18T17:17:37.691Z,100618.81
2022-10-18T17:20:35.343Z,100626.47
2022-10-18T17:23:17.572Z,100627.94
2022-10-18T17:26:08.523Z,100619.53
2022-10-18T17:29:10.826Z,100615.28
2022-10-18T17:31:46.347Z,100612.72
2022-10-18T17:34:21.315Z,100612.41
2022-10-18T17:36:59.831Z,100603.41
2022-10-18T17:39:46.779Z,100589.03
2022-10-18T17:42:22.018Z,100596.84
2022-10-18T17:44:57.076Z,100593.59
2022-10-18T17:47:38.172Z,100598.66
2022-10-18T17:50:15.558Z,100595.31
2022-10-18T17:52:59.251Z,100599.41
2022-10-18T17:55:39.757Z,100610.09
2022-10-18T17:58:22.478Z,100609.59
2022-10-18T18:00:57.683Z,100623.47
2022-10-18T18:03:29.912Z,100606.38
2022-10-18T18:06:16.475Z,100613.84
2022-10-18T18:08:58.075Z,100607.34
2022-10-18T18:11:37.184Z,100605.22
2022-10-18T18:14:24.410Z,100607.66
2022-10-18T18:16:56.487Z,100595.59
2022-10-18T18:19:33.884Z,100589.72
2022-10-18T18:22:09.385Z,100597.81
2022-10-18T18:24:44.250Z,100590.03
2022-10-18T18:27:13.949Z,100586.44
2022-10-18T18:30:03.247Z,100581.78
2022-10-18T18:32:51.204Z,100591.03
2022-10-18T18:35:40.961Z,100589.09
2022-10-18T18:38:14.699Z,100582.13
2022-10-18T18:40:50.413Z,100585.84
2022-10-18T18:43:23.064Z,100576.84
2022-10-18T18:46:07.091Z,100574.91
2022-10-18T18:48:42.362Z,100571.09
2022-10-18T18:51:25.075Z,100579.25
2022-10-18T18:54:06.045Z,100576.41
2022-10-18T18:56:47.273Z,100567.59
2022-10-18T18:59:26.265Z,100568.03
2022-10-18T19:02:03.740Z,100569.41
2022-10-18T19:04:49.746Z,100562.06
2022-10-18T19:07:22.528Z,100560.03
2022-10-18T19:09:57.528Z,100556.56
2022-10-18T19:12:40.332Z,100559.63
2022-10-18T19:15:15.401Z,100549.41
2022-10-18T19:18:08.284Z,100555.56
2022-10-18T19:20:40.324Z,100557.13
2022-10-18T19:23:13.128Z,100549.59
2022-10-18T19:26:10.158Z,100549.50
2022-10-18T19:28:51.306Z,100546.34
2022-10-18T19:31:23.857Z,100545.88
2022-10-18T19:34:04.097Z,100549.78
2022-10-18T19:36:47.522Z,100546.97
2022-10-18T19:39:28.429Z,100552.63
2022-10-18T19:42:24.236Z,100560.50
2022-10-18T19:44:58.827Z,100559.03
2022-10-18T19:47:33.798Z,100563.53
2022-10-18T19:50:12.826Z,100557.59
2022-10-18T19:52:48.190Z,100558.31
2022-10-18T19:55:31.034Z,100564.44
2022-10-18T19:58:05.800Z,100559.06
2022-10-18T20:00:57.428Z,100548.47
2022-10-18T20:03:37.967Z,100539.72
2022-10-18T20:06:16.778Z,100540.75
2022-10-18T20:09:01.626Z,100536.22
2022-10-18T20:11:40.480Z,100531.19
2022-10-18T20:14:16.308Z,100530.69
2022-10-18T20:16:54.410Z,100520.97
2022-10-18T20:19:24.609Z,100527.09
2022-10-18T20:22:07.531Z,100527.09
2022-10-18T20:24:47.444Z,100525.75
2022-10-18T20:27:22.965Z,100529.28
2022-10-18T20:30:02.064Z,100524.09
2022-10-18T20:32:36.925Z,100529.00
2022-10-18T20:35:25.517Z,100522.13
2022-10-18T20:38:06.322Z,100525.16
2022-10-18T20:40:41.490Z,100522.47
2022-10-18T20:43:19.629Z,100519.97
2022-10-18T20:46:04.291Z,100521.34
2022-10-18T20:48:39.700Z,100521.16
2022-10-18T20:51:19.158Z,100514.34
2022-10-18T20:54:06.374Z,100515.91
2022-10-18T20:56:45.680Z,100515.16
2022-10-18T20:59:23.537Z,100504.09
2022-10-18T21:01:58.507Z,100507.31
2022-10-18T21:04:33.775Z,100511.34
2022-10-18T21:07:17.857Z,100504.84
2022-10-18T21:09:56.372Z,100508.38
2022-10-18T21:12:37.722Z,100509.56
2022-10-18T21:15:12.799Z,100500.84
2022-10-18T21:17:59.701Z,100502.03
2022-10-18T21:20:43.465Z,100498.66
2022-10-18T21:23:29.802Z,100499.03
2022-10-18T21:26:08.121Z,100506.44
2022-10-18T21:28:54.496Z,100507.81
2022-10-18T21:31:27.091Z,100505.66
2022-10-18T21:34:13.046Z,100502.81
2022-10-18T21:36:52.319Z,100500.63
2022-10-18T21:39:32.983Z,100496.75
2022-10-18T21:42:05.346Z,100481.00
2022-10-18T21:44:40.499Z,100477.97
2022-10-18T21:47:18.556Z,100467.22
2022-10-18T21:50:04.593Z,100467.22
2022-10-18T21:52:42.984Z,100465.66
2022-10-18T21:55:29.021Z,100457.25
2022-10-18T21:58:06.477Z,100462.25
2022-10-18T22:00:40.884Z,100461.91
2022-10-18T22:03:23.299Z,100453.13
2022-10-18T22:06:13.720Z,100450.44
2022-10-18T22:08:57.674Z,100446.03
2022-10-18T22:11:41.816Z,100444.69
2022-10-18T22:14:23.057Z,100441.78
2022-10-18T22:17:05.306Z,100441.25
2022-10-18T22:19:39.795Z,100446.09
2022-10-18T22:22:25.826Z,100445.53
2022-10-18T22:25:01.103Z,100438.78
2022-10-18T22:27:31.441Z,100439.06
2022-10-18T22:30:07.660Z,100441.25
2022-10-18T22:32:42.839Z,100445.59
2022-10-18T22:35:17.864Z,100442.63
2022-10-18T22:37:58.538Z,100442.25
2022-10-18T22:40:42.213Z,100442.44
2022-10-18T22:43:18.334Z,100438.06
2022-10-18T22:45:52.889Z,100438.75
2022-10-18T22:48:33.272Z,100442.19
2022-10-18T22:51:12.236Z,100437.63
2022-10-18T22:53:52.044Z,100436.16
2022-10-18T22:56:32.397Z,100447.63
2022-10-18T22:59:16.338Z,100453.66
2022-10-18T23:01:53.081Z,100446.91
2022-10-18T23:04:39.974Z,100447.75
2022-10-18T23:07:16.344Z,100452.38
2022-10-18T23:09:49.159Z,100437.44
2022-10-18T23:12:31.254Z,100444.25
2022-10-18T23:15:12.340Z,100430.31
2022-10-18T23:18:02.181Z,100428.94
2022-10-18T23:20:47.602Z,100425.59
2022-10-18T23:23:23.407Z,100429.84
2022-10-18T23:26:10.124Z,100434.13
2022-10-18T23:28:46.554Z,100436.16
2022-10-18T23:31:34.866Z,100434.47
2022-10-18T23:34:13.606Z,100432.16
2022-10-18T23:36:51.728Z,100429.38
2022-10-18T23:39:34.096Z,100433.25
2022-10-18T23:42:09.111Z,100418.50
2022-10-18T23:44:53.262Z,100417.00
2022-10-18T23:47:31.250Z,100403.09
2022-10-18T23:50:07.183Z,100401.41
2022-10-18T23:52:47.608Z,100397.53
2022-10-18T23:55:22.603Z,100398.81
2022-10-18T23:58:03.044Z,100394.94
